Time,TemperatureF,DewpointF,PressureIn,WindDirection,WindDirectionDegrees,WindSpeedMPH,WindSpeedGustMPH,Humidity,HourlyPrecipIn,Conditions,Clouds,dailyrainin,SoftwareType,DateUTC
2013-05-10 00:01:00,69.4,61.9,30.08,West,262,0.0,0.0,77,0.00,,,0.00,Wunderground v.1.15,2013-05-10 04:01:00,
2013-05-10 00:03:00,69.4,62.2,30.08,West,262,0.0,0.0,78,0.00,,,0.00,Wunderground v.1.15,2013-05-10 04:03:00,
2013-05-10 00:09:00,69.3,62.1,30.08,West,262,0.0,0.0,78,0.00,,,0.00,Wunderground v.1.15,2013-05-10 04:09:00,
2013-05-10 00:15:00,69.3,62.1,30.09,West,262,0.0,0.0,78,0.00,,,0.00,Wunderground v.1.15,2013-05-10 04:15:00,
2013-05-10 00:18:00,69.1,61.9,30.09,West,262,0.0,0.0,78,0.00,,,0.00,Wunderground v.1.15,2013-05-10 04:18:00,
2013-05-10 00:24:00,69.1,61.9,30.09,West,262,0.0,0.0,78,0.00,,,0.00,Wunderground v.1.15,2013-05-10 04:24:00,
2013-05-10 00:30:00,69.1,61.9,30.09,West,262,0.0,0.0,78,0.00,,,0.00,Wunderground v.1.15,2013-05-10 04:30:00,
2013-05-10 00:35:00,69.1,61.9,30.09,West,262,0.0,0.0,78,0.00,,,0.00,Wunderground v.1.15,2013-05-10 04:35:00,
2013-05-10 00:40:00,69.3,62.5,30.09,West,262,0.0,0.0,79,0.00,,,0.00,Wunderground v.1.15,2013-05-10 04:40:00,
2013-05-10 00:46:00,69.3,62.5,30.09,West,262,0.0,0.0,79,0.00,,,0.00,Wunderground v.1.15,2013-05-10 04:46:00,
2013-05-10 00:52:00,69.3,62.5,30.09,West,262,0.0,0.0,79,0.00,,,0.00,Wunderground v.1.15,2013-05-10 04:52:00,
2013-05-10 00:57:00,69.3,62.5,30.09,West,262,0.0,0.0,79,0.00,,,0.00,Wunderground v.1.15,2013-05-10 04:57:00,
2013-05-10 01:03:00,69.3,62.9,30.09,West,262,0.0,0.0,80,0.00,,,0.00,Wunderground v.1.15,2013-05-10 05:03:00,
2013-05-10 01:09:00,69.1,62.7,30.09,West,262,0.0,0.0,80,0.00,,,0.00,Wunderground v.1.15,2013-05-10 05:09:00,
2013-05-10 01:15:00,69.1,62.7,30.09,West,262,0.0,0.0,80,0.00,,,0.00,Wunderground v.1.15,2013-05-10 05:15:00,
2013-05-10 01:21:00,68.9,62.5,30.09,West,262,0.0,0.0,80,0.00,,,0.00,Wunderground v.1.15,2013-05-10 05:21:00,
2013-05-10 01:26:00,68.9,62.5,30.09,West,262,0.0,0.0,80,0.00,,,0.00,Wunderground v.1.15,2013-05-10 05:26:00,
2013-05-10 01:32:00,68.8,62.4,30.08,West,262,0.0,0.0,80,0.00,,,0.00,Wunderground v.1.15,2013-05-10 05:32:00,
2013-05-10 01:37:00,68.8,62.4,30.08,West,262,0.0,0.0,80,0.00,,,0.00,Wunderground v.1.15,2013-05-10 05:37:00,
2013-05-10 01:43:00,68.6,62.2,30.08,West,262,0.0,0.0,80,0.00,,,0.00,Wunderground v.1.15,2013-05-10 05:43:00,
2013-05-10 01:48:00,68.6,62.5,30.08,West,262,0.0,0.0,81,0.00,,,0.00,Wunderground v.1.15,2013-05-10 05:48:00,
2013-05-10 01:54:00,68.4,62.3,30.08,West,262,0.0,0.0,81,0.00,,,0.00,Wunderground v.1.15,2013-05-10 05:54:00,
2013-05-10 02:00:00,68.4,62.3,30.08,West,262,0.0,0.0,81,0.00,,,0.00,Wunderground v.1.15,2013-05-10 06:00:00,
2013-05-10 02:05:00,68.3,62.2,30.08,West,262,0.0,0.0,81,0.00,,,0.00,Wunderground v.1.15,2013-05-10 06:05:00,
2013-05-10 02:10:00,68.3,62.2,30.08,West,262,0.0,0.0,81,0.00,,,0.00,Wunderground v.1.15,2013-05-10 06:10:00,
2013-05-10 02:15:00,68.3,62.2,30.07,West,262,0.0,1.0,81,0.00,,,0.00,Wunderground v.1.15,2013-05-10 06:15:00,
2013-05-10 02:21:00,68.3,62.2,30.07,West,262,0.0,0.0,81,0.00,,,0.00,Wunderground v.1.15,2013-05-10 06:21:00,
2013-05-10 02:26:00,68.3,62.2,30.07,West,262,0.0,0.0,81,0.00,,,0.00,Wunderground v.1.15,2013-05-10 06:26:00,
2013-05-10 02:31:00,68.3,62.2,30.07,West,262,0.0,0.0,81,0.00,,,0.00,Wunderground v.1.15,2013-05-10 06:31:00,
2013-05-10 02:36:00,68.3,62.2,30.07,West,262,0.0,0.0,81,0.00,,,0.00,Wunderground v.1.15,2013-05-10 06:36:00,
2013-05-10 02:41:00,68.1,62.0,30.07,West,262,0.0,0.0,81,0.00,,,0.00,Wunderground v.1.15,2013-05-10 06:41:00,
2013-05-10 02:46:00,68.1,62.0,30.07,West,262,0.0,0.0,81,0.00,,,0.00,Wunderground v.1.15,2013-05-10 06:46:00,
2013-05-10 02:51:00,67.9,62.2,30.07,West,262,0.0,0.0,82,0.00,,,0.00,Wunderground v.1.15,2013-05-10 06:51:00,
2013-05-10 02:56:00,67.8,62.1,30.07,West,262,0.0,0.0,82,0.00,,,0.00,Wunderground v.1.15,2013-05-10 06:56:00,
2013-05-10 03:01:00,67.8,62.1,30.07,West,262,0.0,0.0,82,0.00,,,0.00,Wunderground v.1.15,2013-05-10 07:01:00,
2013-05-10 03:06:00,67.6,61.9,30.07,West,262,0.0,0.0,82,0.00,,,0.00,Wunderground v.1.15,2013-05-10 07:06:00,
2013-05-10 03:11:00,67.4,61.7,30.07,West,262,0.0,0.0,82,0.00,,,0.00,Wunderground v.1.15,2013-05-10 07:11:00,
2013-05-10 03:16:00,67.4,62.1,30.07,West,262,0.0,0.0,83,0.00,,,0.00,Wunderground v.1.15,2013-05-10 07:16:00,
2013-05-10 03:21:00,67.4,62.1,30.07,West,262,0.0,0.0,83,0.00,,,0.00,Wunderground v.1.15,2013-05-10 07:21:00,
2013-05-10 03:26:00,67.3,62.0,30.07,West,262,0.0,0.0,83,0.00,,,0.00,Wunderground v.1.15,2013-05-10 07:26:00,
2013-05-10 03:31:00,67.1,61.8,30.07,West,262,0.0,0.0,83,0.00,,,0.00,Wunderground v.1.15,2013-05-10 07:31:00,
2013-05-10 03:36:00,67.1,61.8,30.07,West,262,0.0,0.0,83,0.00,,,0.00,Wunderground v.1.15,2013-05-10 07:36:00,
2013-05-10 03:41:00,66.9,61.9,30.07,West,262,0.0,0.0,84,0.00,,,0.00,Wunderground v.1.15,2013-05-10 07:41:00,
2013-05-10 03:46:00,66.8,61.8,30.07,West,262,0.0,0.0,84,0.00,,,0.00,Wunderground v.1.15,2013-05-10 07:46:00,
2013-05-10 03:51:00,66.6,61.9,30.07,West,262,0.0,0.0,85,0.00,,,0.00,Wunderground v.1.15,2013-05-10 07:51:00,
2013-05-10 03:56:00,66.4,62.1,30.07,West,262,0.0,0.0,86,0.00,,,0.00,Wunderground v.1.15,2013-05-10 07:56:00,
2013-05-10 04:01:00,66.3,62.0,30.06,West,262,0.0,0.0,86,0.00,,,0.00,Wunderground v.1.15,2013-05-10 08:01:00,
2013-05-10 04:06:00,66.1,61.8,30.06,West,262,0.0,0.0,86,0.00,,,0.00,Wunderground v.1.15,2013-05-10 08:06:00,
2013-05-10 04:11:00,66.1,61.8,30.06,West,262,0.0,0.0,86,0.00,,,0.00,Wunderground v.1.15,2013-05-10 08:11:00,
2013-05-10 04:16:00,66.0,62.0,30.07,West,262,0.0,0.0,87,0.00,,,0.00,Wunderground v.1.15,2013-05-10 08:16:00,
2013-05-10 04:21:00,65.8,61.8,30.07,West,262,0.0,0.0,87,0.00,,,0.00,Wunderground v.1.15,2013-05-10 08:21:00,
2013-05-10 04:26:00,65.8,61.8,30.07,West,262,0.0,0.0,87,0.00,,,0.00,Wunderground v.1.15,2013-05-10 08:26:00,
2013-05-10 04:31:00,65.6,61.9,30.06,West,262,0.0,0.0,88,0.00,,,0.00,Wunderground v.1.15,2013-05-10 08:31:00,
2013-05-10 04:36:00,65.5,61.9,30.06,West,262,0.0,0.0,88,0.00,,,0.00,Wunderground v.1.15,2013-05-10 08:36:00,
2013-05-10 04:41:00,65.5,61.9,30.06,West,262,0.0,0.0,88,0.00,,,0.00,Wunderground v.1.15,2013-05-10 08:41:00,
2013-05-10 04:46:00,65.3,61.7,30.06,West,262,0.0,0.0,88,0.00,,,0.00,Wunderground v.1.15,2013-05-10 08:46:00,
2013-05-10 04:51:00,65.3,62.0,30.06,West,262,0.0,0.0,89,0.00,,,0.00,Wunderground v.1.15,2013-05-10 08:51:00,
2013-05-10 04:56:00,65.3,62.0,30.06,West,262,0.0,0.0,89,0.00,,,0.00,Wunderground v.1.15,2013-05-10 08:56:00,
2013-05-10 05:01:00,65.2,62.2,30.06,West,262,0.0,0.0,90,0.00,,,0.00,Wunderground v.1.15,2013-05-10 09:01:00,
2013-05-10 05:06:00,65.2,62.2,30.06,West,262,0.0,0.0,90,0.00,,,0.00,Wunderground v.1.15,2013-05-10 09:06:00,
2013-05-10 05:11:00,65.2,62.2,30.06,West,262,0.0,0.0,90,0.00,,,0.00,Wunderground v.1.15,2013-05-10 09:11:00,
2013-05-10 05:16:00,65.2,62.2,30.06,West,262,0.0,0.0,90,0.00,,,0.00,Wunderground v.1.15,2013-05-10 09:16:00,
2013-05-10 05:21:00,65.0,62.0,30.06,West,262,0.0,0.0,90,0.00,,,0.00,Wunderground v.1.15,2013-05-10 09:21:00,
2013-05-10 05:27:00,65.0,62.0,30.06,West,262,0.0,0.0,90,0.00,,,0.00,Wunderground v.1.15,2013-05-10 09:27:00,
2013-05-10 05:32:00,64.8,61.8,30.06,West,262,0.0,0.0,90,0.00,,,0.00,Wunderground v.1.15,2013-05-10 09:32:00,
2013-05-10 05:37:00,64.8,61.8,30.06,West,262,0.0,0.0,90,0.00,,,0.00,Wunderground v.1.15,2013-05-10 09:37:00,
2013-05-10 05:42:00,64.7,61.7,30.06,West,262,0.0,0.0,90,0.00,,,0.00,Wunderground v.1.15,2013-05-10 09:42:00,
2013-05-10 05:47:00,64.7,62.0,30.06,West,262,0.0,0.0,91,0.00,,,0.00,Wunderground v.1.15,2013-05-10 09:47:00,
2013-05-10 05:52:00,64.7,62.0,30.06,West,262,0.0,0.0,91,0.00,,,0.00,Wunderground v.1.15,2013-05-10 09:52:00,
2013-05-10 05:57:00,64.5,61.8,30.06,West,262,0.0,0.0,91,0.00,,,0.00,Wunderground v.1.15,2013-05-10 09:57:00,
2013-05-10 06:02:00,64.5,61.8,30.06,West,262,0.0,0.0,91,0.00,,,0.00,Wunderground v.1.15,2013-05-10 10:02:00,
2013-05-10 06:07:00,64.5,61.8,30.06,West,262,0.0,0.0,91,0.00,,,0.00,Wunderground v.1.15,2013-05-10 10:07:00,
2013-05-10 06:12:00,64.3,61.6,30.06,West,262,0.0,0.0,91,0.00,,,0.00,Wunderground v.1.15,2013-05-10 10:12:00,
2013-05-10 06:17:00,64.3,61.6,30.06,West,262,0.0,0.0,91,0.00,,,0.00,Wunderground v.1.15,2013-05-10 10:17:00,
2013-05-10 06:22:00,64.2,61.5,30.06,West,262,0.0,0.0,91,0.00,,,0.00,Wunderground v.1.15,2013-05-10 10:22:00,
2013-05-10 06:27:00,64.2,61.8,30.06,West,262,0.0,0.0,92,0.00,,,0.00,Wunderground v.1.15,2013-05-10 10:27:00,
2013-05-10 06:32:00,64.2,61.8,30.06,West,262,0.0,0.0,92,0.00,,,0.00,Wunderground v.1.15,2013-05-10 10:32:00,
2013-05-10 06:37:00,64.0,61.6,30.06,West,262,0.0,0.0,92,0.00,,,0.00,Wunderground v.1.15,2013-05-10 10:37:00,
2013-05-10 06:42:00,64.0,61.6,30.06,West,262,0.0,0.0,92,0.00,,,0.00,Wunderground v.1.15,2013-05-10 10:42:00,
2013-05-10 06:47:00,64.0,61.6,30.07,West,262,0.0,0.0,92,0.00,,,0.00,Wunderground v.1.15,2013-05-10 10:47:00,
2013-05-10 06:52:00,64.0,61.6,30.07,West,262,0.0,0.0,92,0.00,,,0.00,Wunderground v.1.15,2013-05-10 10:52:00,
2013-05-10 06:57:00,63.9,61.5,30.07,West,262,0.0,0.0,92,0.00,,,0.00,Wunderground v.1.15,2013-05-10 10:57:00,
2013-05-10 07:02:00,63.9,61.5,30.07,West,262,0.0,0.0,92,0.00,,,0.00,Wunderground v.1.15,2013-05-10 11:02:00,
2013-05-10 07:07:00,63.9,61.5,30.07,West,262,0.0,0.0,92,0.00,,,0.00,Wunderground v.1.15,2013-05-10 11:07:00,
2013-05-10 07:12:00,63.9,61.5,30.07,West,262,0.0,0.0,92,0.00,,,0.00,Wunderground v.1.15,2013-05-10 11:12:00,
2013-05-10 07:17:00,64.0,61.6,30.07,West,262,0.0,0.0,92,0.00,,,0.00,Wunderground v.1.15,2013-05-10 11:17:00,
2013-05-10 07:22:00,64.0,61.6,30.07,West,262,0.0,0.0,92,0.00,,,0.00,Wunderground v.1.15,2013-05-10 11:22:00,
2013-05-10 07:27:00,64.2,62.1,30.07,West,262,0.0,0.0,93,0.00,,,0.00,Wunderground v.1.15,2013-05-10 11:27:00,
2013-05-10 07:32:00,64.3,62.2,30.07,West,262,0.0,0.0,93,0.00,,,0.00,Wunderground v.1.15,2013-05-10 11:32:00,
2013-05-10 07:37:00,64.5,62.4,30.07,West,262,0.0,0.0,93,0.00,,,0.00,Wunderground v.1.15,2013-05-10 11:37:00,
2013-05-10 07:42:00,65.0,62.9,30.07,West,262,0.0,0.0,93,0.00,,,0.00,Wunderground v.1.15,2013-05-10 11:42:00,
2013-05-10 07:47:00,65.6,62.9,30.07,West,262,0.0,0.0,91,0.00,,,0.00,Wunderground v.1.15,2013-05-10 11:47:00,
2013-05-10 07:52:00,66.3,63.3,30.07,West,262,0.0,0.0,90,0.00,,,0.00,Wunderground v.1.15,2013-05-10 11:52:00,
2013-05-10 07:57:00,66.9,63.2,30.07,West,262,0.0,0.0,88,0.00,,,0.00,Wunderground v.1.15,2013-05-10 11:57:00,
2013-05-10 08:02:00,67.4,63.4,30.07,West,262,0.0,0.0,87,0.00,,,0.00,Wunderground v.1.15,2013-05-10 12:02:00,
2013-05-10 08:07:00,67.9,63.6,30.07,West,262,0.0,0.0,86,0.00,,,0.00,Wunderground v.1.15,2013-05-10 12:07:00,
2013-05-10 08:12:00,68.4,63.4,30.07,West,262,0.0,0.0,84,0.00,,,0.00,Wunderground v.1.15,2013-05-10 12:12:00,
2013-05-10 08:17:00,68.9,63.2,30.08,West,262,0.0,0.0,82,0.00,,,0.00,Wunderground v.1.15,2013-05-10 12:17:00,
2013-05-10 08:22:00,69.4,63.7,30.08,West,262,0.0,0.0,82,0.00,,,0.00,Wunderground v.1.15,2013-05-10 12:22:00,
2013-05-10 08:27:00,69.9,64.2,30.08,West,262,0.0,0.0,82,0.00,,,0.00,Wunderground v.1.15,2013-05-10 12:27:00,
2013-05-10 08:32:00,70.4,63.9,30.07,West,262,0.0,0.0,80,0.00,,,0.00,Wunderground v.1.15,2013-05-10 12:32:00,
2013-05-10 08:37:00,70.9,64.1,30.07,SSE,166,0.0,1.0,79,0.00,,,0.00,Wunderground v.1.15,2013-05-10 12:37:00,
2013-05-10 08:42:00,71.3,64.1,30.07,SSE,166,0.0,0.0,78,0.00,,,0.00,Wunderground v.1.15,2013-05-10 12:42:00,
2013-05-10 08:47:00,71.8,64.2,30.07,SSE,166,0.0,0.0,77,0.00,,,0.00,Wunderground v.1.15,2013-05-10 12:47:00,
2013-05-10 08:52:00,72.1,64.1,30.07,SSE,166,0.0,0.0,76,0.00,,,0.00,Wunderground v.1.15,2013-05-10 12:52:00,
2013-05-10 08:57:00,72.5,64.1,30.07,SSE,167,0.0,0.0,75,0.00,,,0.00,Wunderground v.1.15,2013-05-10 12:57:00,
2013-05-10 09:03:00,72.8,64.0,30.07,SSE,167,0.0,0.0,74,0.00,,,0.00,Wunderground v.1.15,2013-05-10 13:03:00,
2013-05-10 09:08:00,73.3,64.5,30.07,SSE,167,0.0,1.0,74,0.00,,,0.00,Wunderground v.1.15,2013-05-10 13:08:00,
2013-05-10 09:13:00,73.9,64.7,30.07,SSE,167,0.0,0.0,73,0.00,,,0.00,Wunderground v.1.15,2013-05-10 13:13:00,
2013-05-10 09:18:00,74.2,65.0,30.08,SSE,167,0.0,0.0,73,0.00,,,0.00,Wunderground v.1.15,2013-05-10 13:18:00,
2013-05-10 09:23:00,74.4,64.4,30.08,SSE,167,0.0,0.0,71,0.00,,,0.00,Wunderground v.1.15,2013-05-10 13:23:00,
2013-05-10 09:28:00,74.9,64.9,30.08,SSE,167,0.0,1.0,71,0.00,,,0.00,Wunderground v.1.15,2013-05-10 13:28:00,
2013-05-10 09:33:00,75.4,64.9,30.08,SSE,167,0.0,0.0,70,0.00,,,0.00,Wunderground v.1.15,2013-05-10 13:33:00,
2013-05-10 09:38:00,75.6,64.7,30.08,SSE,167,0.0,1.0,69,0.00,,,0.00,Wunderground v.1.15,2013-05-10 13:38:00,
2013-05-10 09:43:00,76.0,65.1,30.08,SSE,167,0.0,0.0,69,0.00,,,0.00,Wunderground v.1.15,2013-05-10 13:43:00,
2013-05-10 09:48:00,76.1,64.8,30.08,SSE,167,0.0,0.0,68,0.00,,,0.00,Wunderground v.1.15,2013-05-10 13:48:00,
2013-05-10 09:53:00,76.3,64.5,30.08,SSW,207,0.0,2.0,67,0.00,,,0.00,Wunderground v.1.15,2013-05-10 13:53:00,
2013-05-10 09:58:00,76.7,65.3,30.08,SSW,211,0.0,2.0,68,0.00,,,0.00,Wunderground v.1.15,2013-05-10 13:58:00,
2013-05-10 10:03:00,77.0,64.8,30.08,SSW,211,0.0,0.0,66,0.00,,,0.00,Wunderground v.1.15,2013-05-10 14:03:00,
2013-05-10 10:08:00,77.4,65.1,30.08,SSW,212,0.0,0.0,66,0.00,,,0.00,Wunderground v.1.15,2013-05-10 14:08:00,
2013-05-10 10:13:00,77.7,65.0,30.08,SSW,212,0.0,1.0,65,0.00,,,0.00,Wunderground v.1.15,2013-05-10 14:13:00,
2013-05-10 10:18:00,78.1,64.9,30.07,SSW,212,0.0,1.0,64,0.00,,,0.00,Wunderground v.1.15,2013-05-10 14:18:00,
2013-05-10 10:23:00,78.5,64.9,30.07,SSW,212,0.0,1.0,63,0.00,,,0.00,Wunderground v.1.15,2013-05-10 14:23:00,
2013-05-10 10:28:00,79.0,65.8,30.07,SSW,212,0.0,1.0,64,0.00,,,0.00,Wunderground v.1.15,2013-05-10 14:28:00,
2013-05-10 10:33:00,79.4,65.2,30.07,SE,125,0.0,1.0,62,0.00,,,0.00,Wunderground v.1.15,2013-05-10 14:33:00,
2013-05-10 10:38:00,79.8,65.2,30.07,North,9,0.0,1.0,61,0.00,,,0.00,Wunderground v.1.15,2013-05-10 14:38:00,
2013-05-10 10:43:00,79.9,64.8,30.07,SE,137,0.0,1.0,60,0.00,,,0.00,Wunderground v.1.15,2013-05-10 14:43:00,
2013-05-10 10:48:00,80.1,64.5,30.07,SW,236,0.0,1.0,59,0.00,,,0.00,Wunderground v.1.15,2013-05-10 14:48:00,
2013-05-10 10:53:00,80.5,65.8,30.07,SW,236,0.0,0.0,61,0.00,,,0.00,Wunderground v.1.15,2013-05-10 14:53:00,
2013-05-10 10:58:00,80.9,65.2,30.07,SSW,201,0.0,1.0,59,0.00,,,0.00,Wunderground v.1.15,2013-05-10 14:58:00,
2013-05-10 11:03:00,81.1,65.4,30.06,SSW,197,0.0,1.0,59,0.00,,,0.00,Wunderground v.1.15,2013-05-10 15:03:00,
2013-05-10 11:08:00,81.6,65.9,30.06,ESE,123,0.0,3.0,59,0.00,,,0.00,Wunderground v.1.15,2013-05-10 15:08:00,
2013-05-10 11:13:00,82.4,64.6,30.06,ESE,112,0.0,3.0,55,0.00,,,0.00,Wunderground v.1.15,2013-05-10 15:13:00,
2013-05-10 11:18:00,83.2,66.4,30.06,SSE,147,2.0,6.0,57,0.00,,,0.00,Wunderground v.1.15,2013-05-10 15:18:00,
2013-05-10 11:23:00,83.8,64.8,30.06,SE,135,0.0,6.0,53,0.00,,,0.00,Wunderground v.1.15,2013-05-10 15:23:00,
2013-05-10 11:28:00,84.0,64.5,30.06,SE,140,0.0,6.0,52,0.00,,,0.00,Wunderground v.1.15,2013-05-10 15:28:00,
2013-05-10 11:34:00,84.0,65.0,30.06,SW,229,0.0,2.0,53,0.00,,,0.00,Wunderground v.1.15,2013-05-10 15:34:00,
2013-05-10 11:39:00,84.0,64.5,30.06,SW,217,0.0,2.0,52,0.00,,,0.00,Wunderground v.1.15,2013-05-10 15:39:00,
2013-05-10 11:44:00,84.0,63.9,30.06,WSW,249,0.0,2.0,51,0.00,,,0.00,Wunderground v.1.15,2013-05-10 15:44:00,
2013-05-10 11:49:00,84.0,62.8,30.06,ESE,105,0.0,2.0,49,0.00,,,0.00,Wunderground v.1.15,2013-05-10 15:49:00,
2013-05-10 11:54:00,84.0,63.9,30.06,SSE,152,0.0,2.0,51,0.00,,,0.00,Wunderground v.1.15,2013-05-10 15:54:00,
2013-05-10 11:59:00,84.1,64.0,30.06,ENE,64,2.0,5.0,51,0.00,,,0.00,Wunderground v.1.15,2013-05-10 15:59:00,
2013-05-10 12:04:00,84.7,64.0,30.06,SSE,157,0.0,3.0,50,0.00,,,0.00,Wunderground v.1.15,2013-05-10 16:04:00,
2013-05-10 12:09:00,85.1,63.2,30.06,SSW,211,1.0,7.0,48,0.00,,,0.00,Wunderground v.1.15,2013-05-10 16:09:00,
2013-05-10 12:14:00,85.3,64.6,30.06,ENE,60,0.0,2.0,50,0.00,,,0.00,Wunderground v.1.15,2013-05-10 16:14:00,
2013-05-10 12:19:00,85.1,62.0,30.06,SW,229,0.0,2.0,46,0.00,,,0.00,Wunderground v.1.15,2013-05-10 16:19:00,
2013-05-10 12:24:00,85.3,62.2,30.06,SE,126,0.0,3.0,46,0.00,,,0.00,Wunderground v.1.15,2013-05-10 16:24:00,
2013-05-10 12:29:00,85.5,64.2,30.06,SE,128,0.0,6.0,49,0.00,,,0.00,Wunderground v.1.15,2013-05-10 16:29:00,
2013-05-10 12:34:00,85.5,63.6,30.06,NW,320,0.0,2.0,48,0.00,,,0.00,Wunderground v.1.15,2013-05-10 16:34:00,
2013-05-10 12:39:00,85.3,64.0,30.06,ENE,61,1.0,3.0,49,0.00,,,0.00,Wunderground v.1.15,2013-05-10 16:39:00,
2013-05-10 12:44:00,85.5,65.3,30.07,SW,236,0.0,2.0,51,0.00,,,0.00,Wunderground v.1.15,2013-05-10 16:44:00,
2013-05-10 12:49:00,85.5,66.4,30.07,WSW,245,0.0,3.0,53,0.00,,,0.00,Wunderground v.1.15,2013-05-10 16:49:00,
2013-05-10 12:54:00,85.3,66.8,30.07,SE,125,2.0,5.0,54,0.00,,,0.00,Wunderground v.1.15,2013-05-10 16:54:00,
2013-05-10 12:59:00,85.5,66.4,30.07,ENE,68,3.0,6.0,53,0.00,,,0.00,Wunderground v.1.15,2013-05-10 16:59:00,
2013-05-10 13:04:00,85.7,68.2,30.07,ESE,119,2.0,5.0,56,0.00,,,0.00,Wunderground v.1.15,2013-05-10 17:04:00,
2013-05-10 13:09:00,85.5,68.5,30.07,SSE,147,1.0,5.0,57,0.00,,,0.00,Wunderground v.1.15,2013-05-10 17:09:00,
2013-05-10 13:14:00,84.9,67.5,30.07,WSW,253,0.0,3.0,56,0.00,,,0.00,Wunderground v.1.15,2013-05-10 17:14:00,
2013-05-10 13:19:00,84.3,68.9,30.07,ESE,106,6.0,6.0,60,0.00,,,0.00,Wunderground v.1.15,2013-05-10 17:19:00,
2013-05-10 13:24:00,84.1,68.2,30.07,ESE,105,2.0,6.0,59,0.00,,,0.00,Wunderground v.1.15,2013-05-10 17:24:00,
2013-05-10 13:29:00,83.8,68.4,30.07,ESE,116,5.0,6.0,60,0.00,,,0.00,Wunderground v.1.15,2013-05-10 17:29:00,
2013-05-10 13:34:00,83.6,68.7,30.07,East,98,0.0,2.0,61,0.00,,,0.00,Wunderground v.1.15,2013-05-10 17:34:00,
2013-05-10 13:39:00,83.6,69.2,30.07,NE,50,0.0,2.0,62,0.00,,,0.00,Wunderground v.1.15,2013-05-10 17:39:00,
2013-05-10 13:44:00,83.4,68.5,30.07,East,101,1.0,3.0,61,0.00,,,0.00,Wunderground v.1.15,2013-05-10 17:44:00,
2013-05-10 13:49:00,83.4,68.1,30.07,SW,228,0.0,3.0,60,0.00,,,0.00,Wunderground v.1.15,2013-05-10 17:49:00,
2013-05-10 13:54:00,83.4,67.6,30.07,SW,232,0.0,1.0,59,0.00,,,0.00,Wunderground v.1.15,2013-05-10 17:54:00,
2013-05-10 13:59:00,83.6,68.2,30.07,SE,125,0.0,3.0,60,0.00,,,0.00,Wunderground v.1.15,2013-05-10 17:59:00,
2013-05-10 14:04:00,83.8,67.4,30.07,WSW,256,0.0,7.0,58,0.00,,,0.00,Wunderground v.1.15,2013-05-10 18:04:00,
2013-05-10 14:10:00,83.8,67.4,30.07,SE,136,0.0,1.0,58,0.00,,,0.00,Wunderground v.1.15,2013-05-10 18:10:00,
2013-05-10 14:15:00,84.0,67.6,30.06,East,89,0.0,3.0,58,0.00,,,0.00,Wunderground v.1.15,2013-05-10 18:15:00,
2013-05-10 14:20:00,84.1,66.2,30.06,WSW,252,1.0,1.0,55,0.00,,,0.00,Wunderground v.1.15,2013-05-10 18:20:00,
2013-05-10 14:25:00,84.1,66.2,30.06,SE,130,1.0,5.0,55,0.00,,,0.00,Wunderground v.1.15,2013-05-10 18:25:00,
2013-05-10 14:30:00,84.3,67.9,30.06,East,81,0.0,1.0,58,0.00,,,0.00,Wunderground v.1.15,2013-05-10 18:30:00,
2013-05-10 14:35:00,84.5,68.1,30.06,SSW,205,1.0,7.0,58,0.00,,,0.00,Wunderground v.1.15,2013-05-10 18:35:00,
2013-05-10 14:40:00,84.0,67.1,30.06,WSW,243,0.0,3.0,57,0.00,,,0.00,Wunderground v.1.15,2013-05-10 18:40:00,
2013-05-10 14:45:00,84.0,67.6,30.06,WSW,243,1.0,3.0,58,0.00,,,0.00,Wunderground v.1.15,2013-05-10 18:45:00,
2013-05-10 14:50:00,83.8,67.4,30.06,ESE,104,0.0,3.0,58,0.00,,,0.00,Wunderground v.1.15,2013-05-10 18:50:00,
2013-05-10 14:55:00,83.8,66.9,30.06,SSE,157,0.0,3.0,57,0.00,,,0.00,Wunderground v.1.15,2013-05-10 18:55:00,
2013-05-10 15:01:00,83.8,65.9,30.05,SW,225,0.0,1.0,55,0.00,,,0.00,Wunderground v.1.15,2013-05-10 19:01:00,
2013-05-10 15:06:00,83.8,65.9,30.05,West,267,0.0,3.0,55,0.00,,,0.00,Wunderground v.1.15,2013-05-10 19:06:00,
2013-05-10 15:11:00,83.8,65.9,30.05,WSW,250,3.0,3.0,55,0.00,,,0.00,Wunderground v.1.15,2013-05-10 19:11:00,
2013-05-10 15:16:00,83.6,65.7,30.04,SSW,207,0.0,3.0,55,0.00,,,0.00,Wunderground v.1.15,2013-05-10 19:16:00,
2013-05-10 15:21:00,83.4,66.6,30.04,WSW,243,0.0,1.0,57,0.00,,,0.00,Wunderground v.1.15,2013-05-10 19:21:00,
2013-05-10 15:26:00,83.4,65.5,30.04,WSW,252,0.0,3.0,55,0.00,,,0.00,Wunderground v.1.15,2013-05-10 19:26:00,
2013-05-10 15:31:00,83.6,65.7,30.04,SE,133,2.0,5.0,55,0.00,,,0.00,Wunderground v.1.15,2013-05-10 19:31:00,
2013-05-10 15:36:00,83.8,65.9,30.04,East,97,0.0,5.0,55,0.00,,,0.00,Wunderground v.1.15,2013-05-10 19:36:00,
2013-05-10 15:41:00,83.8,65.9,30.04,WSW,241,0.0,1.0,55,0.00,,,0.00,Wunderground v.1.15,2013-05-10 19:41:00,
2013-05-10 15:46:00,83.8,66.4,30.03,WSW,241,1.0,7.0,56,0.00,,,0.00,Wunderground v.1.15,2013-05-10 19:46:00,
2013-05-10 15:51:00,83.6,66.2,30.03,NNW,341,0.0,1.0,56,0.00,,,0.00,Wunderground v.1.15,2013-05-10 19:51:00,
2013-05-10 15:56:00,83.4,65.0,30.03,NNE,23,0.0,6.0,54,0.00,,,0.00,Wunderground v.1.15,2013-05-10 19:56:00,
2013-05-10 16:01:00,83.2,64.3,30.03,WSW,253,0.0,3.0,53,0.00,,,0.00,Wunderground v.1.15,2013-05-10 20:01:00,
2013-05-10 16:06:00,83.0,64.1,30.03,WSW,256,1.0,3.0,53,0.00,,,0.00,Wunderground v.1.15,2013-05-10 20:06:00,
2013-05-10 16:11:00,82.8,63.9,30.03,SSE,163,2.0,3.0,53,0.00,,,0.00,Wunderground v.1.15,2013-05-10 20:11:00,
2013-05-10 16:16:00,82.6,64.3,30.03,WSW,249,0.0,5.0,54,0.00,,,0.00,Wunderground v.1.15,2013-05-10 20:16:00,
2013-05-10 16:21:00,82.4,64.1,30.03,SW,235,0.0,2.0,54,0.00,,,0.00,Wunderground v.1.15,2013-05-10 20:21:00,
2013-05-10 16:26:00,82.2,63.9,30.03,NE,51,0.0,2.0,54,0.00,,,0.00,Wunderground v.1.15,2013-05-10 20:26:00,
2013-05-10 16:31:00,82.2,63.4,30.02,North,3,0.0,2.0,53,0.00,,,0.00,Wunderground v.1.15,2013-05-10 20:31:00,
2013-05-10 16:36:00,82.2,63.9,30.02,South,176,1.0,3.0,54,0.00,,,0.00,Wunderground v.1.15,2013-05-10 20:36:00,
2013-05-10 16:41:00,82.2,63.9,30.02,WSW,238,1.0,2.0,54,0.00,,,0.00,Wunderground v.1.15,2013-05-10 20:41:00,
2013-05-10 16:46:00,82.0,64.2,30.01,South,178,2.0,3.0,55,0.00,,,0.00,Wunderground v.1.15,2013-05-10 20:46:00,
2013-05-10 16:51:00,81.8,63.5,30.01,SW,224,1.0,2.0,54,0.00,,,0.00,Wunderground v.1.15,2013-05-10 20:51:00,
2013-05-10 16:56:00,81.8,64.1,30.01,East,91,0.0,2.0,55,0.00,,,0.00,Wunderground v.1.15,2013-05-10 20:56:00,
2013-05-10 17:30:00,80.7,63.5,30.01,NW,315,0.0,0.0,56,0.00,,,0.00,Wunderground v.1.15,2013-05-10 21:30:00,
2013-05-10 17:36:00,80.5,63.9,30.01,SSW,204,0.0,0.0,57,0.00,,,0.00,Wunderground v.1.15,2013-05-10 21:36:00,
2013-05-10 17:41:00,80.1,63.0,30.01,West,260,0.0,1.0,56,0.00,,,0.00,Wunderground v.1.15,2013-05-10 21:41:00,
2013-05-10 17:46:00,79.9,63.3,30.01,West,262,0.0,2.0,57,0.00,,,0.00,Wunderground v.1.15,2013-05-10 21:46:00,
2013-05-10 17:51:00,79.8,63.2,30.01,West,262,0.0,1.0,57,0.00,,,0.00,Wunderground v.1.15,2013-05-10 21:51:00,
2013-05-10 17:56:00,79.6,63.5,30.01,SW,229,1.0,2.0,58,0.00,,,0.00,Wunderground v.1.15,2013-05-10 21:56:00,
2013-05-10 17:58:00,79.6,63.0,30.01,ESE,108,2.0,2.0,57,0.00,,,0.00,Wunderground v.1.15,2013-05-10 21:58:00,
2013-05-10 18:03:00,79.4,62.8,30.01,ESE,109,0.0,3.0,57,0.00,,,0.00,Wunderground v.1.15,2013-05-10 22:03:00,
2013-05-10 18:08:00,79.2,62.7,30.01,ESE,123,0.0,3.0,57,0.00,,,0.00,Wunderground v.1.15,2013-05-10 22:08:00,
2013-05-10 18:13:00,79.2,63.1,30.01,SSE,152,0.0,1.0,58,0.00,,,0.00,Wunderground v.1.15,2013-05-10 22:13:00,
2013-05-10 18:18:00,79.0,63.0,30.00,West,281,0.0,1.0,58,0.00,,,0.00,Wunderground v.1.15,2013-05-10 22:18:00,
2013-05-10 18:23:00,78.6,62.6,30.00,NNE,23,0.0,2.0,58,0.00,,,0.00,Wunderground v.1.15,2013-05-10 22:23:00,
2013-05-10 18:28:00,78.5,62.5,30.00,NNW,339,0.0,2.0,58,0.00,,,0.00,Wunderground v.1.15,2013-05-10 22:28:00,
2013-05-10 18:34:00,78.3,62.8,30.00,NW,310,0.0,1.0,59,0.00,,,0.00,Wunderground v.1.15,2013-05-10 22:34:00,
2013-05-10 18:39:00,77.9,62.9,30.00,WSW,255,0.0,3.0,60,0.00,,,0.00,Wunderground v.1.15,2013-05-10 22:39:00,
2013-05-10 18:44:00,77.7,63.6,30.00,WSW,255,0.0,0.0,62,0.00,,,0.00,Wunderground v.1.15,2013-05-10 22:44:00,
2013-05-10 18:49:00,77.6,63.5,30.00,South,187,0.0,1.0,62,0.00,,,0.00,Wunderground v.1.15,2013-05-10 22:49:00,
2013-05-10 18:54:00,77.4,64.3,30.00,SW,224,0.0,0.0,64,0.00,,,0.00,Wunderground v.1.15,2013-05-10 22:54:00,
2013-05-10 18:59:00,77.2,64.5,30.00,West,279,0.0,0.0,65,0.00,,,0.00,Wunderground v.1.15,2013-05-10 22:59:00,
2013-05-10 19:04:00,77.0,64.3,30.00,ENE,65,0.0,1.0,65,0.00,,,0.00,Wunderground v.1.15,2013-05-10 23:04:00,
2013-05-10 19:09:00,76.8,64.1,30.00,ENE,65,0.0,1.0,65,0.00,,,0.00,Wunderground v.1.15,2013-05-10 23:09:00,
2013-05-10 19:14:00,76.7,64.5,30.00,ENE,70,0.0,1.0,66,0.00,,,0.00,Wunderground v.1.15,2013-05-10 23:14:00,
2013-05-10 19:19:00,76.3,64.1,30.00,ENE,70,0.0,1.0,66,0.00,,,0.00,Wunderground v.1.15,2013-05-10 23:19:00,
2013-05-10 19:24:00,76.1,63.9,30.00,ENE,70,0.0,1.0,66,0.00,,,0.00,Wunderground v.1.15,2013-05-10 23:24:00,
2013-05-10 19:29:00,76.0,64.7,30.00,ENE,70,0.0,1.0,68,0.00,,,0.00,Wunderground v.1.15,2013-05-10 23:29:00,
2013-05-10 19:34:00,75.8,64.5,30.00,ENE,70,0.0,0.0,68,0.00,,,0.00,Wunderground v.1.15,2013-05-10 23:34:00,
2013-05-10 19:39:00,75.6,64.3,30.00,ENE,71,0.0,1.0,68,0.00,,,0.00,Wunderground v.1.15,2013-05-10 23:39:00,
2013-05-10 19:44:00,75.4,64.5,30.00,ENE,71,0.0,0.0,69,0.00,,,0.00,Wunderground v.1.15,2013-05-10 23:44:00,
2013-05-10 19:49:00,75.1,64.2,30.00,ENE,71,0.0,0.0,69,0.00,,,0.00,Wunderground v.1.15,2013-05-10 23:49:00,
2013-05-10 19:54:00,74.9,64.5,30.00,ENE,71,0.0,0.0,70,0.00,,,0.00,Wunderground v.1.15,2013-05-10 23:54:00,
2013-05-10 19:59:00,74.7,64.3,30.00,East,87,0.0,1.0,70,0.00,,,0.00,Wunderground v.1.15,2013-05-10 23:59:00,
2013-05-10 20:04:00,74.6,64.6,30.00,East,87,0.0,0.0,71,0.00,,,0.00,Wunderground v.1.15,2013-05-11 00:04:00,
2013-05-10 20:09:00,74.4,64.4,30.00,East,87,0.0,0.0,71,0.00,,,0.00,Wunderground v.1.15,2013-05-11 00:09:00,
2013-05-10 20:14:00,74.2,64.6,30.00,East,87,0.0,0.0,72,0.00,,,0.00,Wunderground v.1.15,2013-05-11 00:14:00,
2013-05-10 20:19:00,74.0,64.4,30.00,East,87,0.0,0.0,72,0.00,,,0.00,Wunderground v.1.15,2013-05-11 00:19:00,
2013-05-10 20:25:00,73.9,64.7,30.00,East,87,0.0,0.0,73,0.00,,,0.00,Wunderground v.1.15,2013-05-11 00:25:00,
2013-05-10 20:30:00,73.7,64.5,30.01,East,87,0.0,0.0,73,0.00,,,0.00,Wunderground v.1.15,2013-05-11 00:30:00,
2013-05-10 20:35:00,73.5,64.3,30.01,East,87,0.0,0.0,73,0.00,,,0.00,Wunderground v.1.15,2013-05-11 00:35:00,
2013-05-10 20:40:00,73.3,64.5,30.01,East,87,0.0,0.0,74,0.00,,,0.00,Wunderground v.1.15,2013-05-11 00:40:00,
2013-05-10 20:45:00,73.2,64.4,30.00,East,87,0.0,0.0,74,0.00,,,0.00,Wunderground v.1.15,2013-05-11 00:45:00,
2013-05-10 20:50:00,73.0,64.6,30.00,East,87,0.0,0.0,75,0.00,,,0.00,Wunderground v.1.15,2013-05-11 00:50:00,
2013-05-10 20:55:00,72.8,64.4,30.00,East,87,0.0,0.0,75,0.00,,,0.00,Wunderground v.1.15,2013-05-11 00:55:00,
2013-05-10 21:00:00,72.7,64.7,30.00,East,87,0.0,0.0,76,0.00,,,0.00,Wunderground v.1.15,2013-05-11 01:00:00,
2013-05-10 21:05:00,72.5,64.5,30.00,East,87,0.0,0.0,76,0.00,,,0.00,Wunderground v.1.15,2013-05-11 01:05:00,
2013-05-10 21:10:00,72.3,64.3,30.00,East,87,0.0,0.0,76,0.00,,,0.00,Wunderground v.1.15,2013-05-11 01:10:00,
2013-05-10 21:15:00,72.1,64.5,30.00,East,87,0.0,0.0,77,0.00,,,0.00,Wunderground v.1.15,2013-05-11 01:15:00,
2013-05-10 21:20:00,72.1,64.9,30.00,East,87,0.0,0.0,78,0.00,,,0.00,Wunderground v.1.15,2013-05-11 01:20:00,
2013-05-10 21:25:00,72.0,64.8,30.00,East,87,0.0,0.0,78,0.00,,,0.00,Wunderground v.1.15,2013-05-11 01:25:00,
2013-05-10 21:30:00,71.8,64.9,30.00,East,87,0.0,0.0,79,0.00,,,0.00,Wunderground v.1.15,2013-05-11 01:30:00,
2013-05-10 21:35:00,71.6,64.7,30.00,East,87,0.0,0.0,79,0.00,,,0.00,Wunderground v.1.15,2013-05-11 01:35:00,
2013-05-10 21:40:00,71.6,64.7,30.00,East,87,0.0,0.0,79,0.00,,,0.00,Wunderground v.1.15,2013-05-11 01:40:00,
2013-05-10 21:45:00,71.5,65.0,30.01,East,87,0.0,0.0,80,0.00,,,0.00,Wunderground v.1.15,2013-05-11 01:45:00,
2013-05-10 21:50:00,71.3,65.2,30.01,East,87,0.0,0.0,81,0.00,,,0.00,Wunderground v.1.15,2013-05-11 01:50:00,
2013-05-10 21:55:00,71.1,64.6,30.01,East,87,0.0,0.0,80,0.00,,,0.00,Wunderground v.1.15,2013-05-11 01:55:00,
2013-05-10 22:00:00,70.9,64.8,30.02,East,87,0.0,0.0,81,0.00,,,0.00,Wunderground v.1.15,2013-05-11 02:00:00,
2013-05-10 22:05:00,70.8,64.7,30.02,East,87,0.0,0.0,81,0.00,,,0.00,Wunderground v.1.15,2013-05-11 02:05:00,
2013-05-10 22:10:00,70.6,64.5,30.02,East,87,0.0,0.0,81,0.00,,,0.00,Wunderground v.1.15,2013-05-11 02:10:00,
2013-05-10 22:15:00,70.4,64.3,30.01,East,87,0.0,0.0,81,0.00,,,0.00,Wunderground v.1.15,2013-05-11 02:15:00,
2013-05-10 22:20:00,70.4,64.3,30.01,East,87,0.0,0.0,81,0.00,,,0.00,Wunderground v.1.15,2013-05-11 02:20:00,
2013-05-10 22:25:00,70.3,64.2,30.01,East,87,0.0,0.0,81,0.00,,,0.00,Wunderground v.1.15,2013-05-11 02:25:00,
2013-05-10 22:30:00,70.3,64.2,30.01,East,87,0.0,0.0,81,0.00,,,0.00,Wunderground v.1.15,2013-05-11 02:30:00,
2013-05-10 22:35:00,70.3,64.2,30.01,East,87,0.0,0.0,81,0.00,,,0.00,Wunderground v.1.15,2013-05-11 02:35:00,
2013-05-10 22:40:00,70.3,64.2,30.01,East,87,0.0,0.0,81,0.00,,,0.00,Wunderground v.1.15,2013-05-11 02:40:00,
2013-05-10 22:45:00,70.3,64.2,30.01,East,87,0.0,0.0,81,0.00,,,0.00,Wunderground v.1.15,2013-05-11 02:45:00,
2013-05-10 22:50:00,70.3,64.2,30.01,ENE,73,0.0,0.0,81,0.00,,,0.00,Wunderground v.1.15,2013-05-11 02:50:00,
2013-05-10 22:55:00,70.3,64.2,30.01,ENE,73,0.0,0.0,81,0.00,,,0.00,Wunderground v.1.15,2013-05-11 02:55:00,
2013-05-10 23:01:00,70.4,64.3,30.01,SE,136,0.0,1.0,81,0.00,,,0.00,Wunderground v.1.15,2013-05-11 03:01:00,
2013-05-10 23:06:00,70.6,64.5,30.01,SE,136,0.0,1.0,81,0.00,,,0.00,Wunderground v.1.15,2013-05-11 03:06:00,
2013-05-10 23:11:00,70.6,64.8,30.01,SE,136,0.0,0.0,82,0.00,,,0.00,Wunderground v.1.15,2013-05-11 03:11:00,
2013-05-10 23:16:00,70.9,65.1,30.02,SE,135,0.0,0.0,82,0.00,,,0.00,Wunderground v.1.15,2013-05-11 03:16:00,
2013-05-10 23:21:00,71.1,65.3,30.02,SE,135,0.0,0.0,82,0.00,,,0.00,Wunderground v.1.15,2013-05-11 03:21:00,
2013-05-10 23:26:00,71.3,65.5,30.02,SE,135,0.0,0.0,82,0.00,,,0.00,Wunderground v.1.15,2013-05-11 03:26:00,
2013-05-10 23:31:00,71.5,66.1,30.01,SE,135,0.0,0.0,83,0.00,,,0.00,Wunderground v.1.15,2013-05-11 03:31:00,
2013-05-10 23:36:00,71.6,66.2,30.01,SE,135,0.0,0.0,83,0.00,,,0.00,Wunderground v.1.15,2013-05-11 03:36:00,
2013-05-10 23:41:00,71.8,66.4,30.01,ESE,116,0.0,0.0,83,0.00,,,0.00,Wunderground v.1.15,2013-05-11 03:41:00,
2013-05-10 23:46:00,71.8,66.4,30.01,ESE,118,0.0,0.0,83,0.00,,,0.00,Wunderground v.1.15,2013-05-11 03:46:00,
2013-05-10 23:51:00,72.0,66.6,30.01,ESE,118,0.0,0.0,83,0.00,,,0.00,Wunderground v.1.15,2013-05-11 03:51:00,
2013-05-10 23:56:00,72.0,66.6,30.01,ESE,116,0.0,0.0,83,0.00,,,0.00,Wunderground v.1.15,2013-05-11 03:56:00,